sensor_id;sensor_type;location;lat;lon;timestamp;temperature;humidity
50570;DHT22;36525;49.398;7.614;2022-10-16T00:01:39;14.50;99.90
50570;DHT22;36525;49.398;7.614;2022-10-16T00:04:06;14.50;99.90
50570;DHT22;36525;49.398;7.614;2022-10-16T00:06:33;14.50;99.90
50570;DHT22;36525;49.398;7.614;2022-10-16T00:09:00;14.60;99.90
50570;DHT22;36525;49.398;7.614;2022-10-16T00:11:30;14.60;99.90
50570;DHT22;36525;49.398;7.614;2022-10-16T00:14:06;14.60;99.90
50570;DHT22;36525;49.398;7.614;2022-10-16T00:16:35;14.60;99.90
50570;DHT22;36525;49.398;7.614;2022-10-16T00:19:03;14.60;99.90
50570;DHT22;36525;49.398;7.614;2022-10-16T00:21:31;14.60;99.90
50570;DHT22;36525;49.398;7.614;2022-10-16T00:24:00;14.60;99.90
50570;DHT22;36525;49.398;7.614;2022-10-16T00:26:34;14.60;99.90
50570;DHT22;36525;49.398;7.614;2022-10-16T00:29:02;14.60;99.90
50570;DHT22;36525;49.398;7.614;2022-10-16T00:31:29;14.60;99.90
50570;DHT22;36525;49.398;7.614;2022-10-16T00:33:57;14.60;99.90
50570;DHT22;36525;49.398;7.614;2022-10-16T00:36:25;14.70;99.90
50570;DHT22;36525;49.398;7.614;2022-10-16T00:38:54;14.70;99.90
50570;DHT22;36525;49.398;7.614;2022-10-16T00:41:23;14.80;99.90
50570;DHT22;36525;49.398;7.614;2022-10-16T00:46:29;14.70;99.90
50570;DHT22;36525;49.398;7.614;2022-10-16T00:49:03;14.70;99.90
50570;DHT22;36525;49.398;7.614;2022-10-16T00:51:45;14.70;99.90
50570;DHT22;36525;49.398;7.614;2022-10-16T00:54:16;14.70;99.90
50570;DHT22;36525;49.398;7.614;2022-10-16T00:56:47;14.70;99.90
50570;DHT22;36525;49.398;7.614;2022-10-16T00:59:24;14.80;99.90
50570;DHT22;36525;49.398;7.614;2022-10-16T01:01:53;14.80;99.90
50570;DHT22;36525;49.398;7.614;2022-10-16T01:04:21;14.80;99.90
50570;DHT22;36525;49.398;7.614;2022-10-16T01:15:52;14.90;99.90
50570;DHT22;36525;49.398;7.614;2022-10-16T01:18:37;14.80;99.90
50570;DHT22;36525;49.398;7.614;2022-10-16T01:38:25;14.80;99.90
50570;DHT22;36525;49.398;7.614;2022-10-16T01:41:19;14.90;99.90
50570;DHT22;36525;49.398;7.614;2022-10-16T01:43:56;14.90;99.90
50570;DHT22;36525;49.398;7.614;2022-10-16T01:46:28;14.90;99.90
50570;DHT22;36525;49.398;7.614;2022-10-16T01:48:57;14.80;99.90
50570;DHT22;36525;49.398;7.614;2022-10-16T01:51:26;14.80;99.90
50570;DHT22;36525;49.398;7.614;2022-10-16T01:53:56;14.80;99.90
50570;DHT22;36525;49.398;7.614;2022-10-16T01:56:25;14.80;99.90
50570;DHT22;36525;49.398;7.614;2022-10-16T01:59:05;14.80;99.90
50570;DHT22;36525;49.398;7.614;2022-10-16T02:01:37;14.70;99.90
50570;DHT22;36525;49.398;7.614;2022-10-16T02:04:33;14.70;99.90
50570;DHT22;36525;49.398;7.614;2022-10-16T02:07:03;14.60;99.90
50570;DHT22;36525;49.398;7.614;2022-10-16T02:09:33;14.70;99.90
50570;DHT22;36525;49.398;7.614;2022-10-16T02:12:06;14.70;99.90
50570;DHT22;36525;49.398;7.614;2022-10-16T02:14:41;14.70;99.90
50570;DHT22;36525;49.398;7.614;2022-10-16T02:17:14;14.70;99.90
50570;DHT22;36525;49.398;7.614;2022-10-16T02:19:43;14.70;99.90
50570;DHT22;36525;49.398;7.614;2022-10-16T02:22:36;14.60;99.90
50570;DHT22;36525;49.398;7.614;2022-10-16T02:25:10;14.60;99.90
50570;DHT22;36525;49.398;7.614;2022-10-16T02:27:43;14.60;99.90
50570;DHT22;36525;49.398;7.614;2022-10-16T02:32:49;14.60;99.90
50570;DHT22;36525;49.398;7.614;2022-10-16T02:35:18;14.60;99.90
50570;DHT22;36525;49.398;7.614;2022-10-16T02:37:48;14.70;99.90
50570;DHT22;36525;49.398;7.614;2022-10-16T02:40:17;14.60;99.90
50570;DHT22;36525;49.398;7.614;2022-10-16T02:42:53;14.60;99.90
50570;DHT22;36525;49.398;7.614;2022-10-16T02:45:22;14.50;99.90
50570;DHT22;36525;49.398;7.614;2022-10-16T02:47:50;14.50;99.90
50570;DHT22;36525;49.398;7.614;2022-10-16T02:50:18;14.50;99.90
50570;DHT22;36525;49.398;7.614;2022-10-16T02:52:44;14.50;99.90
50570;DHT22;36525;49.398;7.614;2022-10-16T02:55:11;14.40;99.90
50570;DHT22;36525;49.398;7.614;2022-10-16T02:57:38;14.40;99.90
50570;DHT22;36525;49.398;7.614;2022-10-16T03:00:09;14.40;99.90
50570;DHT22;36525;49.398;7.614;2022-10-16T03:02:36;14.40;99.90
50570;DHT22;36525;49.398;7.614;2022-10-16T03:05:04;14.40;99.90
50570;DHT22;36525;49.398;7.614;2022-10-16T03:07:31;14.40;99.90
50570;DHT22;36525;49.398;7.614;2022-10-16T03:09:58;14.30;99.90
50570;DHT22;36525;49.398;7.614;2022-10-16T03:12:29;14.30;99.90
50570;DHT22;36525;49.398;7.614;2022-10-16T03:14:56;14.30;99.90
50570;DHT22;36525;49.398;7.614;2022-10-16T03:17:24;14.30;99.90
50570;DHT22;36525;49.398;7.614;2022-10-16T03:19:51;14.30;99.90
50570;DHT22;36525;49.398;7.614;2022-10-16T03:22:18;14.40;99.90
50570;DHT22;36525;49.398;7.614;2022-10-16T03:24:45;14.30;99.90
50570;DHT22;36525;49.398;7.614;2022-10-16T03:27:12;14.30;99.90
50570;DHT22;36525;49.398;7.614;2022-10-16T03:29:39;14.30;99.90
50570;DHT22;36525;49.398;7.614;2022-10-16T03:32:06;14.30;99.90
50570;DHT22;36525;49.398;7.614;2022-10-16T03:34:32;14.30;99.90
50570;DHT22;36525;49.398;7.614;2022-10-16T03:36:59;14.30;99.90
50570;DHT22;36525;49.398;7.614;2022-10-16T03:39:26;14.30;99.90
50570;DHT22;36525;49.398;7.614;2022-10-16T03:41:53;14.30;99.90
50570;DHT22;36525;49.398;7.614;2022-10-16T03:44:20;14.30;99.90
50570;DHT22;36525;49.398;7.614;2022-10-16T03:46:48;14.30;99.90
50570;DHT22;36525;49.398;7.614;2022-10-16T03:49:15;14.20;99.90
50570;DHT22;36525;49.398;7.614;2022-10-16T03:51:42;14.20;99.90
50570;DHT22;36525;49.398;7.614;2022-10-16T03:54:10;14.10;99.90
50570;DHT22;36525;49.398;7.614;2022-10-16T03:56:37;14.10;99.90
50570;DHT22;36525;49.398;7.614;2022-10-16T03:59:04;14.20;99.90
50570;DHT22;36525;49.398;7.614;2022-10-16T04:01:31;14.20;99.90
50570;DHT22;36525;49.398;7.614;2022-10-16T04:03:58;14.20;99.90
50570;DHT22;36525;49.398;7.614;2022-10-16T04:06:25;14.20;99.90
50570;DHT22;36525;49.398;7.614;2022-10-16T04:08:52;14.30;99.90
50570;DHT22;36525;49.398;7.614;2022-10-16T04:11:18;14.30;99.90
50570;DHT22;36525;49.398;7.614;2022-10-16T04:13:45;14.30;99.90
50570;DHT22;36525;49.398;7.614;2022-10-16T04:16:12;14.30;99.90
50570;DHT22;36525;49.398;7.614;2022-10-16T04:18:39;14.30;99.90
50570;DHT22;36525;49.398;7.614;2022-10-16T04:21:07;14.20;99.90
50570;DHT22;36525;49.398;7.614;2022-10-16T04:23:34;14.30;99.90
50570;DHT22;36525;49.398;7.614;2022-10-16T04:26:01;14.30;99.90
50570;DHT22;36525;49.398;7.614;2022-10-16T04:28:28;14.30;99.90
50570;DHT22;36525;49.398;7.614;2022-10-16T04:30:55;14.20;99.90
50570;DHT22;36525;49.398;7.614;2022-10-16T04:33:22;14.20;99.90
50570;DHT22;36525;49.398;7.614;2022-10-16T04:35:55;14.30;99.90
50570;DHT22;36525;49.398;7.614;2022-10-16T04:38:22;14.20;99.90
50570;DHT22;36525;49.398;7.614;2022-10-16T04:40:49;14.20;99.90
50570;DHT22;36525;49.398;7.614;2022-10-16T04:43:17;14.20;99.90
50570;DHT22;36525;49.398;7.614;2022-10-16T04:45:44;14.30;99.90
50570;DHT22;36525;49.398;7.614;2022-10-16T04:48:10;14.30;99.90
50570;DHT22;36525;49.398;7.614;2022-10-16T04:50:38;14.30;99.90
50570;DHT22;36525;49.398;7.614;2022-10-16T04:53:05;14.30;99.90
50570;DHT22;36525;49.398;7.614;2022-10-16T04:55:33;14.30;99.90
50570;DHT22;36525;49.398;7.614;2022-10-16T04:58:01;14.30;99.90
50570;DHT22;36525;49.398;7.614;2022-10-16T05:00:27;14.30;99.90
50570;DHT22;36525;49.398;7.614;2022-10-16T05:02:54;14.40;99.90
50570;DHT22;36525;49.398;7.614;2022-10-16T05:05:21;14.40;99.90
50570;DHT22;36525;49.398;7.614;2022-10-16T05:07:49;14.50;99.90
50570;DHT22;36525;49.398;7.614;2022-10-16T05:10:16;14.50;99.90
50570;DHT22;36525;49.398;7.614;2022-10-16T05:12:43;14.50;99.90
50570;DHT22;36525;49.398;7.614;2022-10-16T05:15:10;14.60;99.90
50570;DHT22;36525;49.398;7.614;2022-10-16T05:17:37;14.60;99.90
50570;DHT22;36525;49.398;7.614;2022-10-16T05:20:10;14.60;99.90
50570;DHT22;36525;49.398;7.614;2022-10-16T05:22:39;14.60;99.90
50570;DHT22;36525;49.398;7.614;2022-10-16T05:25:06;14.70;99.90
50570;DHT22;36525;49.398;7.614;2022-10-16T05:27:33;14.70;99.90
50570;DHT22;36525;49.398;7.614;2022-10-16T05:30:00;14.80;99.90
50570;DHT22;36525;49.398;7.614;2022-10-16T05:32:27;14.80;99.90
50570;DHT22;36525;49.398;7.614;2022-10-16T05:34:54;14.80;99.90
50570;DHT22;36525;49.398;7.614;2022-10-16T05:37:21;14.80;99.90
50570;DHT22;36525;49.398;7.614;2022-10-16T05:39:47;14.80;99.90
50570;DHT22;36525;49.398;7.614;2022-10-16T05:42:14;14.80;99.90
50570;DHT22;36525;49.398;7.614;2022-10-16T05:44:41;14.90;99.90
50570;DHT22;36525;49.398;7.614;2022-10-16T05:47:08;14.90;99.90
50570;DHT22;36525;49.398;7.614;2022-10-16T05:49:35;14.90;99.90
50570;DHT22;36525;49.398;7.614;2022-10-16T05:52:06;14.90;99.90
50570;DHT22;36525;49.398;7.614;2022-10-16T05:54:33;15.00;99.90
50570;DHT22;36525;49.398;7.614;2022-10-16T05:57:00;15.00;99.90
50570;DHT22;36525;49.398;7.614;2022-10-16T05:59:28;15.00;99.90
50570;DHT22;36525;49.398;7.614;2022-10-16T06:01:55;15.00;99.90
50570;DHT22;36525;49.398;7.614;2022-10-16T06:04:22;15.00;99.90
50570;DHT22;36525;49.398;7.614;2022-10-16T06:06:49;15.10;99.90
50570;DHT22;36525;49.398;7.614;2022-10-16T06:09:16;15.10;99.90
50570;DHT22;36525;49.398;7.614;2022-10-16T06:11:43;15.10;99.90
50570;DHT22;36525;49.398;7.614;2022-10-16T06:14:10;15.10;99.90
50570;DHT22;36525;49.398;7.614;2022-10-16T06:16:37;15.20;99.90
50570;DHT22;36525;49.398;7.614;2022-10-16T06:19:04;15.20;99.90
50570;DHT22;36525;49.398;7.614;2022-10-16T06:21:35;15.20;99.90
50570;DHT22;36525;49.398;7.614;2022-10-16T06:24:02;15.30;99.90
50570;DHT22;36525;49.398;7.614;2022-10-16T06:26:30;15.20;99.90
50570;DHT22;36525;49.398;7.614;2022-10-16T06:28:58;15.30;99.90
50570;DHT22;36525;49.398;7.614;2022-10-16T06:31:26;15.30;99.90
50570;DHT22;36525;49.398;7.614;2022-10-16T06:33:57;15.30;99.90
50570;DHT22;36525;49.398;7.614;2022-10-16T06:36:24;15.30;99.90
50570;DHT22;36525;49.398;7.614;2022-10-16T06:38:52;15.30;99.90
50570;DHT22;36525;49.398;7.614;2022-10-16T06:41:21;15.30;99.90
50570;DHT22;36525;49.398;7.614;2022-10-16T06:43:49;15.30;99.90
50570;DHT22;36525;49.398;7.614;2022-10-16T06:46:18;15.40;99.90
50570;DHT22;36525;49.398;7.614;2022-10-16T06:48:47;15.50;99.90
50570;DHT22;36525;49.398;7.614;2022-10-16T06:51:16;15.60;99.90
50570;DHT22;36525;49.398;7.614;2022-10-16T06:53:52;15.70;99.90
50570;DHT22;36525;49.398;7.614;2022-10-16T06:56:31;15.70;99.90
50570;DHT22;36525;49.398;7.614;2022-10-16T06:58:59;15.80;99.90
50570;DHT22;36525;49.398;7.614;2022-10-16T07:01:26;15.80;99.90
50570;DHT22;36525;49.398;7.614;2022-10-16T07:03:54;15.80;99.90
50570;DHT22;36525;49.398;7.614;2022-10-16T07:06:22;15.80;99.90
50570;DHT22;36525;49.398;7.614;2022-10-16T07:08:51;15.80;99.90
50570;DHT22;36525;49.398;7.614;2022-10-16T07:11:20;15.80;99.90
50570;DHT22;36525;49.398;7.614;2022-10-16T07:13:49;15.80;99.90
50570;DHT22;36525;49.398;7.614;2022-10-16T07:16:24;15.80;99.90
50570;DHT22;36525;49.398;7.614;2022-10-16T07:18:56;15.80;99.90
50570;DHT22;36525;49.398;7.614;2022-10-16T07:21:31;15.80;99.90
50570;DHT22;36525;49.398;7.614;2022-10-16T07:24:05;15.90;99.90
50570;DHT22;36525;49.398;7.614;2022-10-16T07:26:35;15.90;99.90
50570;DHT22;36525;49.398;7.614;2022-10-16T07:29:02;15.80;99.90
50570;DHT22;36525;49.398;7.614;2022-10-16T07:31:30;15.70;99.90
50570;DHT22;36525;49.398;7.614;2022-10-16T07:33:59;15.80;99.90
50570;DHT22;36525;49.398;7.614;2022-10-16T07:36:26;15.80;99.90
50570;DHT22;36525;49.398;7.614;2022-10-16T07:38:53;15.70;99.90
50570;DHT22;36525;49.398;7.614;2022-10-16T07:41:25;15.70;99.90
50570;DHT22;36525;49.398;7.614;2022-10-16T07:43:53;15.70;99.90
50570;DHT22;36525;49.398;7.614;2022-10-16T07:46:22;15.70;99.90
50570;DHT22;36525;49.398;7.614;2022-10-16T07:48:49;15.60;99.90
50570;DHT22;36525;49.398;7.614;2022-10-16T07:51:22;15.50;99.90
50570;DHT22;36525;49.398;7.614;2022-10-16T07:53:50;15.50;99.90
50570;DHT22;36525;49.398;7.614;2022-10-16T07:56:19;15.50;99.90
50570;DHT22;36525;49.398;7.614;2022-10-16T07:58:47;15.50;99.90
50570;DHT22;36525;49.398;7.614;2022-10-16T08:01:16;15.60;99.90
50570;DHT22;36525;49.398;7.614;2022-10-16T08:03:46;15.60;99.90
50570;DHT22;36525;49.398;7.614;2022-10-16T08:06:15;15.80;99.90
50570;DHT22;36525;49.398;7.614;2022-10-16T08:08:42;16.00;99.90
50570;DHT22;36525;49.398;7.614;2022-10-16T08:11:10;16.00;99.90
50570;DHT22;36525;49.398;7.614;2022-10-16T08:13:37;16.10;99.90
50570;DHT22;36525;49.398;7.614;2022-10-16T08:16:06;16.10;99.90
50570;DHT22;36525;49.398;7.614;2022-10-16T08:18:36;16.20;99.90
50570;DHT22;36525;49.398;7.614;2022-10-16T08:21:07;16.20;99.90
50570;DHT22;36525;49.398;7.614;2022-10-16T08:23:47;16.20;99.90
50570;DHT22;36525;49.398;7.614;2022-10-16T08:26:22;16.30;99.90
50570;DHT22;36525;49.398;7.614;2022-10-16T08:28:50;16.30;99.90
50570;DHT22;36525;49.398;7.614;2022-10-16T08:31:18;16.30;99.90
50570;DHT22;36525;49.398;7.614;2022-10-16T08:33:46;16.30;99.90
50570;DHT22;36525;49.398;7.614;2022-10-16T08:36:14;16.20;99.90
50570;DHT22;36525;49.398;7.614;2022-10-16T08:38:42;16.20;99.90
50570;DHT22;36525;49.398;7.614;2022-10-16T08:41:37;16.20;99.90
50570;DHT22;36525;49.398;7.614;2022-10-16T08:47:59;16.40;99.90
50570;DHT22;36525;49.398;7.614;2022-10-16T08:50:35;16.50;99.90
50570;DHT22;36525;49.398;7.614;2022-10-16T08:53:04;16.70;99.90
50570;DHT22;36525;49.398;7.614;2022-10-16T08:55:43;16.80;99.90
50570;DHT22;36525;49.398;7.614;2022-10-16T08:58:17;16.90;99.90
50570;DHT22;36525;49.398;7.614;2022-10-16T09:00:47;17.00;99.90
50570;DHT22;36525;49.398;7.614;2022-10-16T09:15:07;17.60;99.90
50570;DHT22;36525;49.398;7.614;2022-10-16T09:20:49;18.00;99.90
50570;DHT22;36525;49.398;7.614;2022-10-16T09:23:30;18.00;99.90
50570;DHT22;36525;49.398;7.614;2022-10-16T09:26:01;18.00;99.90
50570;DHT22;36525;49.398;7.614;2022-10-16T09:28:29;18.00;99.90
50570;DHT22;36525;49.398;7.614;2022-10-16T09:30:56;18.10;99.90
50570;DHT22;36525;49.398;7.614;2022-10-16T09:33:33;18.20;99.90
50570;DHT22;36525;49.398;7.614;2022-10-16T09:36:04;18.20;99.90
50570;DHT22;36525;49.398;7.614;2022-10-16T09:38:34;18.30;99.90
50570;DHT22;36525;49.398;7.614;2022-10-16T09:41:18;18.40;99.90
50570;DHT22;36525;49.398;7.614;2022-10-16T09:43:54;18.30;99.90
50570;DHT22;36525;49.398;7.614;2022-10-16T09:48:59;18.20;99.90
50570;DHT22;36525;49.398;7.614;2022-10-16T09:51:31;18.20;99.90
50570;DHT22;36525;49.398;7.614;2022-10-16T09:54:18;18.40;99.90
50570;DHT22;36525;49.398;7.614;2022-10-16T09:56:47;18.40;99.90
50570;DHT22;36525;49.398;7.614;2022-10-16T09:59:22;18.40;99.90
50570;DHT22;36525;49.398;7.614;2022-10-16T10:01:54;18.40;99.90
50570;DHT22;36525;49.398;7.614;2022-10-16T10:04:23;18.30;99.90
50570;DHT22;36525;49.398;7.614;2022-10-16T10:06:54;18.30;99.90
50570;DHT22;36525;49.398;7.614;2022-10-16T10:09:25;18.20;99.90
50570;DHT22;36525;49.398;7.614;2022-10-16T10:22:39;18.70;99.90
50570;DHT22;36525;49.398;7.614;2022-10-16T10:36:27;18.90;99.90
50570;DHT22;36525;49.398;7.614;2022-10-16T10:51:01;18.80;99.90
50570;DHT22;36525;49.398;7.614;2022-10-16T10:53:36;18.80;99.90
50570;DHT22;36525;49.398;7.614;2022-10-16T10:56:35;18.80;99.90
50570;DHT22;36525;49.398;7.614;2022-10-16T10:59:36;18.80;99.90
50570;DHT22;36525;49.398;7.614;2022-10-16T11:08:00;18.80;99.90
50570;DHT22;36525;49.398;7.614;2022-10-16T11:13:38;19.20;99.90
50570;DHT22;36525;49.398;7.614;2022-10-16T11:16:18;19.30;99.90
50570;DHT22;36525;49.398;7.614;2022-10-16T11:21:46;19.80;99.90
50570;DHT22;36525;49.398;7.614;2022-10-16T11:24:23;19.90;99.90
50570;DHT22;36525;49.398;7.614;2022-10-16T11:27:04;20.10;99.90
50570;DHT22;36525;49.398;7.614;2022-10-16T11:29:35;20.00;99.90
50570;DHT22;36525;49.398;7.614;2022-10-16T11:32:23;19.90;99.90
50570;DHT22;36525;49.398;7.614;2022-10-16T11:35:02;19.90;99.90
50570;DHT22;36525;49.398;7.614;2022-10-16T11:37:40;19.90;99.90
50570;DHT22;36525;49.398;7.614;2022-10-16T11:43:10;19.60;99.90
50570;DHT22;36525;49.398;7.614;2022-10-16T11:46:09;19.60;99.90
50570;DHT22;36525;49.398;7.614;2022-10-16T11:48:45;19.70;99.90
50570;DHT22;36525;49.398;7.614;2022-10-16T11:51:35;19.80;99.90
50570;DHT22;36525;49.398;7.614;2022-10-16T11:54:32;20.00;99.90
50570;DHT22;36525;49.398;7.614;2022-10-16T11:57:16;20.10;99.90
50570;DHT22;36525;49.398;7.614;2022-10-16T12:08:09;21.10;99.90
50570;DHT22;36525;49.398;7.614;2022-10-16T12:10:39;21.20;99.90
50570;DHT22;36525;49.398;7.614;2022-10-16T12:13:46;21.00;99.90
50570;DHT22;36525;49.398;7.614;2022-10-16T12:18:43;20.90;99.90
50570;DHT22;36525;49.398;7.614;2022-10-16T12:21:13;20.90;99.90
50570;DHT22;36525;49.398;7.614;2022-10-16T12:23:49;20.90;99.90
50570;DHT22;36525;49.398;7.614;2022-10-16T12:26:31;20.90;99.90
50570;DHT22;36525;49.398;7.614;2022-10-16T12:31:52;21.00;99.90
50570;DHT22;36525;49.398;7.614;2022-10-16T12:36:56;20.70;99.90
50570;DHT22;36525;49.398;7.614;2022-10-16T12:39:24;20.50;99.90
50570;DHT22;36525;49.398;7.614;2022-10-16T12:42:02;20.40;99.90
50570;DHT22;36525;49.398;7.614;2022-10-16T12:44:35;20.20;99.90
50570;DHT22;36525;49.398;7.614;2022-10-16T12:47:02;20.10;99.90
50570;DHT22;36525;49.398;7.614;2022-10-16T12:49:35;20.10;99.90
50570;DHT22;36525;49.398;7.614;2022-10-16T12:52:04;20.20;99.90
50570;DHT22;36525;49.398;7.614;2022-10-16T12:54:35;20.30;99.90
50570;DHT22;36525;49.398;7.614;2022-10-16T12:57:29;20.50;99.90
50570;DHT22;36525;49.398;7.614;2022-10-16T13:00:44;20.40;99.90
50570;DHT22;36525;49.398;7.614;2022-10-16T13:03:39;20.40;99.90
50570;DHT22;36525;49.398;7.614;2022-10-16T13:14:52;20.20;99.90
50570;DHT22;36525;49.398;7.614;2022-10-16T13:20:35;20.20;99.90
50570;DHT22;36525;49.398;7.614;2022-10-16T13:23:23;20.10;99.90
50570;DHT22;36525;49.398;7.614;2022-10-16T13:29:15;19.90;99.90
50570;DHT22;36525;49.398;7.614;2022-10-16T13:31:44;19.80;99.90
50570;DHT22;36525;49.398;7.614;2022-10-16T13:34:18;19.80;99.90
50570;DHT22;36525;49.398;7.614;2022-10-16T13:36:51;19.80;99.90
50570;DHT22;36525;49.398;7.614;2022-10-16T13:39:23;19.80;99.90
50570;DHT22;36525;49.398;7.614;2022-10-16T13:42:03;19.80;99.90
50570;DHT22;36525;49.398;7.614;2022-10-16T13:44:42;19.80;99.90
50570;DHT22;36525;49.398;7.614;2022-10-16T13:50:15;20.10;99.90
50570;DHT22;36525;49.398;7.614;2022-10-16T13:52:43;20.10;99.90
50570;DHT22;36525;49.398;7.614;2022-10-16T13:55:12;20.20;99.90
50570;DHT22;36525;49.398;7.614;2022-10-16T13:57:43;20.20;99.90
50570;DHT22;36525;49.398;7.614;2022-10-16T14:00:21;20.30;99.90
50570;DHT22;36525;49.398;7.614;2022-10-16T14:02:57;20.20;99.90
50570;DHT22;36525;49.398;7.614;2022-10-16T14:05:28;20.30;99.90
50570;DHT22;36525;49.398;7.614;2022-10-16T14:07:56;20.30;99.90
50570;DHT22;36525;49.398;7.614;2022-10-16T14:10:28;20.50;99.90
50570;DHT22;36525;49.398;7.614;2022-10-16T14:12:57;20.60;99.90
50570;DHT22;36525;49.398;7.614;2022-10-16T14:15:26;20.90;99.90
50570;DHT22;36525;49.398;7.614;2022-10-16T14:17:53;20.90;99.90
50570;DHT22;36525;49.398;7.614;2022-10-16T14:20:24;20.90;99.90
50570;DHT22;36525;49.398;7.614;2022-10-16T14:23:16;21.10;99.90
50570;DHT22;36525;49.398;7.614;2022-10-16T14:25:46;21.30;99.90
50570;DHT22;36525;49.398;7.614;2022-10-16T14:28:20;22.50;99.90
50570;DHT22;36525;49.398;7.614;2022-10-16T14:30:52;23.10;99.90
50570;DHT22;36525;49.398;7.614;2022-10-16T14:33:38;24.00;99.90
50570;DHT22;36525;49.398;7.614;2022-10-16T14:36:14;23.80;99.90
50570;DHT22;36525;49.398;7.614;2022-10-16T14:38:49;23.60;99.90
50570;DHT22;36525;49.398;7.614;2022-10-16T14:41:22;23.20;99.90
50570;DHT22;36525;49.398;7.614;2022-10-16T14:43:53;22.80;99.90
50570;DHT22;36525;49.398;7.614;2022-10-16T14:46:27;22.60;99.90
50570;DHT22;36525;49.398;7.614;2022-10-16T14:49:13;22.50;99.90
50570;DHT22;36525;49.398;7.614;2022-10-16T14:51:44;22.10;99.90
50570;DHT22;36525;49.398;7.614;2022-10-16T14:54:17;22.00;99.90
50570;DHT22;36525;49.398;7.614;2022-10-16T14:56:51;22.10;99.90
50570;DHT22;36525;49.398;7.614;2022-10-16T14:59:21;22.30;99.90
50570;DHT22;36525;49.398;7.614;2022-10-16T15:01:52;22.70;99.90
50570;DHT22;36525;49.398;7.614;2022-10-16T15:04:19;23.60;99.90
50570;DHT22;36525;49.398;7.614;2022-10-16T15:06:46;25.80;99.90
50570;DHT22;36525;49.398;7.614;2022-10-16T15:09:13;27.40;99.90
50570;DHT22;36525;49.398;7.614;2022-10-16T15:11:41;26.60;99.90
50570;DHT22;36525;49.398;7.614;2022-10-16T15:14:12;25.30;99.90
50570;DHT22;36525;49.398;7.614;2022-10-16T15:16:40;24.00;99.90
50570;DHT22;36525;49.398;7.614;2022-10-16T15:19:07;23.10;99.90
50570;DHT22;36525;49.398;7.614;2022-10-16T15:21:34;22.40;99.90
50570;DHT22;36525;49.398;7.614;2022-10-16T15:24:01;21.60;99.90
50570;DHT22;36525;49.398;7.614;2022-10-16T15:26:28;21.10;99.90
50570;DHT22;36525;49.398;7.614;2022-10-16T15:28:56;20.90;99.90
50570;DHT22;36525;49.398;7.614;2022-10-16T15:31:24;20.80;99.90
50570;DHT22;36525;49.398;7.614;2022-10-16T15:33:52;20.70;99.90
50570;DHT22;36525;49.398;7.614;2022-10-16T15:36:27;21.00;99.90
50570;DHT22;36525;49.398;7.614;2022-10-16T15:38:55;22.60;99.90
50570;DHT22;36525;49.398;7.614;2022-10-16T15:41:22;24.00;99.90
50570;DHT22;36525;49.398;7.614;2022-10-16T15:43:50;24.50;99.90
50570;DHT22;36525;49.398;7.614;2022-10-16T15:46:19;25.10;99.90
50570;DHT22;36525;49.398;7.614;2022-10-16T15:51:16;24.10;99.90
50570;DHT22;36525;49.398;7.614;2022-10-16T15:53:44;24.00;99.90
50570;DHT22;36525;49.398;7.614;2022-10-16T15:56:13;24.00;99.90
50570;DHT22;36525;49.398;7.614;2022-10-16T15:58:42;24.10;99.90
50570;DHT22;36525;49.398;7.614;2022-10-16T16:01:09;23.50;99.90
50570;DHT22;36525;49.398;7.614;2022-10-16T16:03:38;22.80;99.90
50570;DHT22;36525;49.398;7.614;2022-10-16T16:06:11;22.70;99.90
50570;DHT22;36525;49.398;7.614;2022-10-16T16:08:39;22.30;99.90
50570;DHT22;36525;49.398;7.614;2022-10-16T16:11:09;21.60;99.90
50570;DHT22;36525;49.398;7.614;2022-10-16T16:13:37;21.00;99.90
50570;DHT22;36525;49.398;7.614;2022-10-16T16:16:12;20.40;99.90
50570;DHT22;36525;49.398;7.614;2022-10-16T16:18:42;20.00;99.90
50570;DHT22;36525;49.398;7.614;2022-10-16T16:21:10;19.60;99.90
50570;DHT22;36525;49.398;7.614;2022-10-16T16:23:39;19.40;99.90
50570;DHT22;36525;49.398;7.614;2022-10-16T16:26:26;19.10;99.90
50570;DHT22;36525;49.398;7.614;2022-10-16T16:28:56;18.90;99.90
50570;DHT22;36525;49.398;7.614;2022-10-16T16:31:25;18.60;99.90
50570;DHT22;36525;49.398;7.614;2022-10-16T16:33:53;18.40;99.90
50570;DHT22;36525;49.398;7.614;2022-10-16T16:36:20;18.30;99.90
50570;DHT22;36525;49.398;7.614;2022-10-16T16:38:47;18.10;99.90
50570;DHT22;36525;49.398;7.614;2022-10-16T16:41:17;17.90;99.90
50570;DHT22;36525;49.398;7.614;2022-10-16T16:43:46;17.70;99.90
50570;DHT22;36525;49.398;7.614;2022-10-16T16:46:18;17.60;99.90
50570;DHT22;36525;49.398;7.614;2022-10-16T16:48:46;17.40;99.90
50570;DHT22;36525;49.398;7.614;2022-10-16T16:51:15;17.30;99.90
50570;DHT22;36525;49.398;7.614;2022-10-16T16:53:49;17.20;99.90
50570;DHT22;36525;49.398;7.614;2022-10-16T16:56:18;17.10;99.90
50570;DHT22;36525;49.398;7.614;2022-10-16T16:58:47;17.00;99.90
50570;DHT22;36525;49.398;7.614;2022-10-16T17:01:15;16.90;99.90
50570;DHT22;36525;49.398;7.614;2022-10-16T17:03:48;16.80;99.90
50570;DHT22;36525;49.398;7.614;2022-10-16T17:06:20;16.60;99.90
50570;DHT22;36525;49.398;7.614;2022-10-16T17:08:49;16.50;99.90
50570;DHT22;36525;49.398;7.614;2022-10-16T17:11:21;16.40;99.90
50570;DHT22;36525;49.398;7.614;2022-10-16T17:13:51;16.30;99.90
50570;DHT22;36525;49.398;7.614;2022-10-16T17:16:31;16.30;99.90
50570;DHT22;36525;49.398;7.614;2022-10-16T17:19:05;16.20;99.90
50570;DHT22;36525;49.398;7.614;2022-10-16T17:21:33;16.20;99.90
50570;DHT22;36525;49.398;7.614;2022-10-16T17:24:01;16.10;99.90
50570;DHT22;36525;49.398;7.614;2022-10-16T17:26:29;16.00;99.90
50570;DHT22;36525;49.398;7.614;2022-10-16T17:29:00;16.00;99.90
50570;DHT22;36525;49.398;7.614;2022-10-16T17:31:33;15.90;99.90
50570;DHT22;36525;49.398;7.614;2022-10-16T17:34:04;15.80;99.90
50570;DHT22;36525;49.398;7.614;2022-10-16T17:36:34;15.80;99.90
50570;DHT22;36525;49.398;7.614;2022-10-16T17:39:05;15.70;99.90
50570;DHT22;36525;49.398;7.614;2022-10-16T17:41:34;15.70;99.90
50570;DHT22;36525;49.398;7.614;2022-10-16T17:44:03;15.60;99.90
50570;DHT22;36525;49.398;7.614;2022-10-16T17:46:31;15.60;99.90
50570;DHT22;36525;49.398;7.614;2022-10-16T17:49:05;15.50;99.90
50570;DHT22;36525;49.398;7.614;2022-10-16T17:51:32;15.50;99.90
50570;DHT22;36525;49.398;7.614;2022-10-16T17:54:00;15.50;99.90
50570;DHT22;36525;49.398;7.614;2022-10-16T17:56:28;15.40;99.90
50570;DHT22;36525;49.398;7.614;2022-10-16T17:58:57;15.40;99.90
50570;DHT22;36525;49.398;7.614;2022-10-16T18:01:34;15.30;99.90
50570;DHT22;36525;49.398;7.614;2022-10-16T18:04:11;15.30;99.90
50570;DHT22;36525;49.398;7.614;2022-10-16T18:06:41;15.30;99.90
50570;DHT22;36525;49.398;7.614;2022-10-16T18:09:11;15.20;99.90
50570;DHT22;36525;49.398;7.614;2022-10-16T18:11:40;15.20;99.90
50570;DHT22;36525;49.398;7.614;2022-10-16T18:14:07;15.10;99.90